createdAt,value
2022-11-22T00:01:53.925Z,12.80
2022-11-22T00:05:54.318Z,12.17
2022-11-22T00:09:54.556Z,11.53
2022-11-22T00:13:54.672Z,9.70
2022-11-22T00:17:57.371Z,12.07
2022-11-22T00:21:57.478Z,13.77
2022-11-22T00:25:57.870Z,13.20
2022-11-22T00:29:58.009Z,12.20
2022-11-22T00:34:00.786Z,12.17
2022-11-22T00:38:00.860Z,12.73
2022-11-22T00:42:01.997Z,11.77
2022-11-22T00:46:02.958Z,11.37
2022-11-22T00:50:06.378Z,12.07
2022-11-22T00:54:06.771Z,12.40
2022-11-22T00:58:06.904Z,13.40
2022-11-22T01:02:07.050Z,13.80
2022-11-22T01:06:09.745Z,12.90
2022-11-22T01:10:11.631Z,12.63
2022-11-22T01:14:11.749Z,11.40
2022-11-22T01:18:11.889Z,11.00
2022-11-22T01:22:14.796Z,11.70
2022-11-22T01:26:16.113Z,10.80
2022-11-22T01:30:17.242Z,12.20
2022-11-22T01:34:17.568Z,11.43
2022-11-22T01:38:20.527Z,11.13
2022-11-22T01:42:20.827Z,11.53
2022-11-22T01:46:37.085Z,12.03
2022-11-22T01:50:42.638Z,10.80
2022-11-22T01:54:50.753Z,11.83
2022-11-22T01:58:59.791Z,12.03
2022-11-22T02:03:05.468Z,11.80
2022-11-22T02:07:13.878Z,11.27
2022-11-22T02:11:17.112Z,11.70
2022-11-22T02:15:17.621Z,12.27
2022-11-22T02:19:24.894Z,12.83
2022-11-22T02:23:37.908Z,13.13
2022-11-22T02:27:40.647Z,22.97
2022-11-22T02:31:45.436Z,34.90
2022-11-22T02:35:47.041Z,36.43
2022-11-22T02:39:51.064Z,31.43
2022-11-22T02:43:53.795Z,26.73
2022-11-22T02:47:53.873Z,18.50
2022-11-22T02:51:56.009Z,20.90
2022-11-22T02:55:56.093Z,20.50
2022-11-22T02:59:58.788Z,17.67
2022-11-22T03:03:58.904Z,16.03
2022-11-22T03:07:59.107Z,17.40
2022-11-22T03:11:59.512Z,14.17
2022-11-22T03:16:02.416Z,14.90
2022-11-22T03:20:02.597Z,13.47
2022-11-22T03:24:03.074Z,12.63
2022-11-22T03:28:03.200Z,12.50
2022-11-22T03:32:06.024Z,12.40
2022-11-22T03:36:07.468Z,11.03
2022-11-22T03:40:09.474Z,11.07
2022-11-22T03:44:10.154Z,12.07
2022-11-22T03:48:12.860Z,11.53
2022-11-22T03:52:13.051Z,11.13
2022-11-22T03:56:13.343Z,11.27
2022-11-22T04:00:15.848Z,10.67
2022-11-22T04:04:19.732Z,9.80
2022-11-22T04:08:20.030Z,10.00
2022-11-22T04:12:20.388Z,10.07
2022-11-22T04:16:20.707Z,9.43
2022-11-22T04:20:39.151Z,10.10
2022-11-22T04:24:51.772Z,9.90
2022-11-22T04:29:09.127Z,9.00
2022-11-22T04:33:10.105Z,9.63
2022-11-22T04:37:12.879Z,9.13
2022-11-22T04:41:13.257Z,9.63
2022-11-22T04:45:14.182Z,9.13
2022-11-22T04:49:14.346Z,9.30
2022-11-22T04:53:15.264Z,9.27
2022-11-22T04:57:15.404Z,9.90
2022-11-22T05:01:15.622Z,9.87
2022-11-22T05:05:15.802Z,9.40
2022-11-22T05:09:18.857Z,9.07
2022-11-22T05:13:19.019Z,10.20
2022-11-22T05:17:19.156Z,9.80
2022-11-22T05:21:19.254Z,9.70
2022-11-22T05:25:25.476Z,9.17
2022-11-22T05:29:26.072Z,9.77
2022-11-22T05:33:26.210Z,9.33
2022-11-22T05:37:26.848Z,10.73
2022-11-22T05:41:29.680Z,12.33
2022-11-22T05:45:30.048Z,17.17
2022-11-22T05:49:30.510Z,24.83
2022-11-22T05:53:30.762Z,24.10
2022-11-22T05:57:36.004Z,18.43
2022-11-22T06:01:36.169Z,16.00
2022-11-22T06:05:36.282Z,14.97
2022-11-22T06:09:36.453Z,13.63
2022-11-22T06:13:42.117Z,13.23
2022-11-22T06:17:42.307Z,13.40
2022-11-22T06:21:42.771Z,13.07
2022-11-22T06:25:43.141Z,13.03
2022-11-22T06:29:46.077Z,15.00
2022-11-22T06:33:47.332Z,12.43
2022-11-22T06:37:47.490Z,16.13
2022-11-22T06:41:47.927Z,13.83
2022-11-22T06:45:50.821Z,14.73
2022-11-22T06:49:50.976Z,14.70
2022-11-22T06:53:52.580Z,13.50
2022-11-22T06:57:53.801Z,14.57
2022-11-22T07:01:59.016Z,14.47
2022-11-22T07:06:03.154Z,12.63
2022-11-22T07:10:03.227Z,14.23
2022-11-22T07:14:08.749Z,14.50
2022-11-22T07:18:12.047Z,13.33
2022-11-22T07:22:12.169Z,12.57
2022-11-22T07:26:16.131Z,12.80
2022-11-22T07:30:17.978Z,13.10
2022-11-22T07:34:23.899Z,13.53
2022-11-22T07:38:59.329Z,13.97
2022-11-22T07:43:08.264Z,15.60
2022-11-22T07:47:08.411Z,13.67
2022-11-22T07:51:14.763Z,14.27
2022-11-22T07:55:14.890Z,13.97
2022-11-22T07:59:15.141Z,15.00
2022-11-22T08:03:17.794Z,17.03
2022-11-22T08:07:21.144Z,14.00
2022-11-22T08:11:21.515Z,12.57
2022-11-22T08:15:22.225Z,12.13
2022-11-22T08:19:22.683Z,12.60
2022-11-22T08:23:25.735Z,12.50
2022-11-22T08:27:27.803Z,14.37
2022-11-22T08:31:29.655Z,15.73
2022-11-22T08:35:30.104Z,13.50
2022-11-22T08:39:33.376Z,13.87
2022-11-22T08:43:33.787Z,12.40
2022-11-22T08:47:38.138Z,12.13
2022-11-22T08:51:45.506Z,13.27
2022-11-22T08:56:04.217Z,12.20
2022-11-22T09:00:04.626Z,11.63
2022-11-22T09:04:04.719Z,10.93
2022-11-22T09:12:27.763Z,10.93
2022-11-22T09:16:31.822Z,11.60
2022-11-22T09:20:32.575Z,13.20
2022-11-22T09:24:37.248Z,12.77
2022-11-22T09:28:40.729Z,12.43
2022-11-22T09:32:41.020Z,11.47
2022-11-22T09:36:44.389Z,11.20
2022-11-22T09:40:49.804Z,10.60
2022-11-22T09:45:31.344Z,10.90
2022-11-22T09:49:40.200Z,11.63
2022-11-22T09:53:49.381Z,10.57
2022-11-22T09:57:55.089Z,9.83
2022-11-22T10:02:18.226Z,9.90
2022-11-22T10:06:30.070Z,11.47
2022-11-22T10:10:41.317Z,9.93
2022-11-22T10:14:55.963Z,9.93
2022-11-22T10:19:06.964Z,9.93
2022-11-22T10:23:19.778Z,10.63
2022-11-22T10:27:20.007Z,9.93
2022-11-22T10:31:29.225Z,10.70
2022-11-22T10:35:54.198Z,9.53
2022-11-22T10:40:16.180Z,11.20
2022-11-22T10:44:37.367Z,9.63
2022-11-22T10:48:49.094Z,9.50
2022-11-22T10:53:07.871Z,9.77
2022-11-22T10:57:21.689Z,10.40
2022-11-22T11:01:36.109Z,10.43
2022-11-22T11:06:15.287Z,11.63
2022-11-22T11:20:52.149Z,9.70
2022-11-22T11:24:55.476Z,9.37
2022-11-22T11:29:41.642Z,18.70
2022-11-22T11:33:44.450Z,9.60
2022-11-22T11:37:44.682Z,8.40
2022-11-22T11:41:44.830Z,12.03
2022-11-22T11:45:47.738Z,7.77
2022-11-22T11:49:54.446Z,7.90
2022-11-22T11:54:03.841Z,8.17
2022-11-22T11:58:07.581Z,8.30
2022-11-22T12:02:18.836Z,8.63
2022-11-22T12:06:20.122Z,8.87
2022-11-22T12:10:46.811Z,8.60
2022-11-22T12:15:10.753Z,8.10
2022-11-22T12:19:27.543Z,8.73
2022-11-22T12:23:36.336Z,8.70
2022-11-22T12:27:36.671Z,9.30
2022-11-22T12:31:44.409Z,8.33
2022-11-22T12:35:49.466Z,8.80
2022-11-22T12:39:56.206Z,9.47
2022-11-22T12:44:02.690Z,10.00
2022-11-22T12:48:09.358Z,10.40
2022-11-22T12:52:26.425Z,10.43
2022-11-22T12:56:34.042Z,9.93
2022-11-22T13:00:44.694Z,11.20
2022-11-22T13:04:59.922Z,10.50
2022-11-22T13:09:08.312Z,11.47
2022-11-22T13:13:25.231Z,11.20
2022-11-22T13:17:30.778Z,12.10
2022-11-22T13:21:46.483Z,13.27
2022-11-22T13:26:14.555Z,11.07
2022-11-22T13:30:23.837Z,11.67
2022-11-22T13:34:29.380Z,10.47
2022-11-22T13:38:31.301Z,11.43
2022-11-22T13:42:35.032Z,10.33
2022-11-22T13:46:56.838Z,10.57
2022-11-22T13:51:06.516Z,10.33
2022-11-22T13:55:36.033Z,10.97
2022-11-22T13:59:46.605Z,11.67
2022-11-22T14:03:47.286Z,12.10
2022-11-22T14:07:52.159Z,12.03
2022-11-22T14:12:26.360Z,13.23
2022-11-22T14:16:53.587Z,13.47
2022-11-22T14:21:07.280Z,13.67
2022-11-22T14:25:33.378Z,14.53
2022-11-22T14:30:05.880Z,15.00
2022-11-22T14:34:27.658Z,14.57
2022-11-22T14:38:35.822Z,13.87
2022-11-22T14:42:55.786Z,14.50
2022-11-22T14:47:04.448Z,13.37
2022-11-22T14:51:18.175Z,13.03
2022-11-22T14:55:23.193Z,12.07
2022-11-22T15:00:03.187Z,14.47
2022-11-22T15:09:13.831Z,15.00
2022-11-22T15:09:52.945Z,16.30
2022-11-22T15:14:46.912Z,20.57
2022-11-22T15:59:03.865Z,27.30
2022-11-22T16:03:07.119Z,28.63
2022-11-22T16:07:10.286Z,30.77
2022-11-22T16:11:19.477Z,31.33
2022-11-22T16:15:36.342Z,32.27
2022-11-22T16:19:39.230Z,25.00
2022-11-22T16:23:40.979Z,24.80
2022-11-22T16:27:49.118Z,21.10
2022-11-22T16:31:49.843Z,26.23
2022-11-22T16:35:57.021Z,21.00
2022-11-22T16:39:57.236Z,19.50
2022-11-22T16:44:00.003Z,22.63
2022-11-22T16:48:24.537Z,23.47
2022-11-22T16:52:23.124Z,23.47
2022-11-22T16:56:26.600Z,24.37
2022-11-22T17:00:27.446Z,25.10
2022-11-22T17:04:28.272Z,22.60
2022-11-22T17:08:31.111Z,20.33
2022-11-22T17:12:33.820Z,21.67
2022-11-22T17:16:34.415Z,19.97
2022-11-22T17:20:34.760Z,22.77
2022-11-22T17:24:38.107Z,20.67
2022-11-22T17:28:38.518Z,19.43
2022-11-22T17:32:40.313Z,21.17
2022-11-22T17:36:40.898Z,20.60
2022-11-22T17:40:44.835Z,22.23
2022-11-22T17:44:44.985Z,24.53
2022-11-22T17:48:45.239Z,23.03
2022-11-22T17:52:45.364Z,21.00
2022-11-22T17:56:48.092Z,18.70
2022-11-22T18:00:48.208Z,19.57
2022-11-22T18:04:48.302Z,21.83
2022-11-22T18:08:48.721Z,18.77
2022-11-22T18:13:19.799Z,18.83
2022-11-22T18:17:12.182Z,19.97
2022-11-22T18:21:17.139Z,20.93
2022-11-22T18:25:18.007Z,19.70
2022-11-22T18:29:42.098Z,27.50
2022-11-22T18:33:40.862Z,22.27
2022-11-22T18:37:41.542Z,20.27
2022-11-22T18:41:47.091Z,19.63
2022-11-22T18:45:49.937Z,24.20
2022-11-22T18:49:50.940Z,21.43
2022-11-22T18:53:51.242Z,23.37
2022-11-22T18:57:53.940Z,22.43
2022-11-22T19:01:56.953Z,27.60
2022-11-22T19:05:57.126Z,28.23
2022-11-22T19:09:57.364Z,24.87
2022-11-22T19:13:57.627Z,24.30
2022-11-22T19:18:00.471Z,26.90
2022-11-22T19:22:00.670Z,25.87
2022-11-22T19:26:00.969Z,33.13
2022-11-22T19:30:01.200Z,24.10
2022-11-22T19:34:04.158Z,20.87
2022-11-22T19:38:04.358Z,23.27
2022-11-22T19:42:04.585Z,27.53
2022-11-22T19:46:05.453Z,27.20
2022-11-22T19:50:09.371Z,30.37
2022-11-22T19:54:10.741Z,36.03
2022-11-22T19:58:11.018Z,36.50
2022-11-22T20:02:13.586Z,27.93
2022-11-22T20:06:17.317Z,24.17
2022-11-22T20:10:18.782Z,22.27
2022-11-22T20:14:19.137Z,21.20
2022-11-22T20:18:19.353Z,21.70
2022-11-22T20:22:22.165Z,22.63
2022-11-22T20:26:25.308Z,24.90
2022-11-22T20:30:25.474Z,30.00
2022-11-22T20:34:26.073Z,22.23
2022-11-22T20:38:28.958Z,22.90
2022-11-22T20:42:36.456Z,23.47
2022-11-22T20:46:40.511Z,24.83
2022-11-22T20:50:40.830Z,26.80
2022-11-22T20:54:43.656Z,23.83
2022-11-22T20:58:44.153Z,24.40
2022-11-22T21:02:44.459Z,23.17
2022-11-22T21:06:44.665Z,23.17
2022-11-22T21:10:47.551Z,20.73
2022-11-22T21:14:51.322Z,24.33
2022-11-22T21:18:54.419Z,22.17
2022-11-22T21:22:56.506Z,23.83
2022-11-22T21:26:59.262Z,24.53
2022-11-22T21:31:00.410Z,24.27
2022-11-22T21:35:00.808Z,23.50
2022-11-22T21:39:01.245Z,21.67
2022-11-22T21:43:04.061Z,22.53
2022-11-22T21:47:04.828Z,22.90
2022-11-22T21:51:13.577Z,22.10
2022-11-22T21:55:22.627Z,22.40
2022-11-22T21:59:25.756Z,23.17
2022-11-22T22:03:27.440Z,22.47
2022-11-22T22:07:51.528Z,22.63
2022-11-22T22:11:49.063Z,23.07
2022-11-22T22:15:52.099Z,22.40
2022-11-22T22:19:52.501Z,21.47
2022-11-22T22:23:53.577Z,20.83
2022-11-22T22:27:53.944Z,21.07
2022-11-22T22:31:56.804Z,20.30
2022-11-22T22:35:59.868Z,21.03
2022-11-22T22:40:20.572Z,20.03
2022-11-22T22:44:23.389Z,21.10
2022-11-22T22:48:26.689Z,21.20
2022-11-22T22:52:27.367Z,20.00
2022-11-22T22:56:28.178Z,19.67
2022-11-22T23:00:28.556Z,20.40
2022-11-22T23:04:31.723Z,20.13
2022-11-22T23:08:31.878Z,19.53
2022-11-22T23:12:32.191Z,20.80
2022-11-22T23:16:32.554Z,19.33
2022-11-22T23:20:35.284Z,18.80
2022-11-22T23:24:36.303Z,19.23
2022-11-22T23:28:36.756Z,20.07
2022-11-22T23:32:37.013Z,19.13
2022-11-22T23:36:41.233Z,19.90
2022-11-22T23:40:41.498Z,19.70
2022-11-22T23:44:41.855Z,18.60
2022-11-22T23:48:41.988Z,19.90
2022-11-22T23:52:44.668Z,18.60
2022-11-22T23:56:45.469Z,19.53
